sensor_id;sensor_type;location;lat;lon;timestamp;P1;durP1;ratioP1;P2;durP2;ratioP2
142;SDS011;63667;49.046;8.468;2023-11-21T00:01:40;8.00;;;2.73;;
142;SDS011;63667;49.046;8.468;2023-11-21T00:04:06;8.80;;;2.93;;
142;SDS011;63667;49.046;8.468;2023-11-21T00:06:33;9.90;;;3.00;;
142;SDS011;63667;49.046;8.468;2023-11-21T00:09:02;8.00;;;2.93;;
142;SDS011;63667;49.046;8.468;2023-11-21T00:11:30;6.57;;;2.77;;
142;SDS011;63667;49.046;8.468;2023-11-21T00:13:56;10.53;;;3.37;;
142;SDS011;63667;49.046;8.468;2023-11-21T00:16:23;9.53;;;3.23;;
142;SDS011;63667;49.046;8.468;2023-11-21T00:18:50;9.30;;;3.77;;
142;SDS011;63667;49.046;8.468;2023-11-21T00:21:17;5.60;;;2.83;;
142;SDS011;63667;49.046;8.468;2023-11-21T00:23:43;10.27;;;3.20;;
142;SDS011;63667;49.046;8.468;2023-11-21T00:26:09;16.73;;;3.57;;
142;SDS011;63667;49.046;8.468;2023-11-21T00:28:36;11.13;;;3.40;;
142;SDS011;63667;49.046;8.468;2023-11-21T00:31:02;16.33;;;3.30;;
142;SDS011;63667;49.046;8.468;2023-11-21T00:33:29;11.97;;;3.00;;
142;SDS011;63667;49.046;8.468;2023-11-21T00:35:55;7.30;;;3.13;;
142;SDS011;63667;49.046;8.468;2023-11-21T00:38:22;7.70;;;2.90;;
142;SDS011;63667;49.046;8.468;2023-11-21T00:40:48;7.70;;;3.10;;
142;SDS011;63667;49.046;8.468;2023-11-21T00:43:14;9.00;;;2.70;;
142;SDS011;63667;49.046;8.468;2023-11-21T00:45:41;5.47;;;2.77;;
142;SDS011;63667;49.046;8.468;2023-11-21T00:48:07;8.70;;;2.97;;
142;SDS011;63667;49.046;8.468;2023-11-21T00:50:34;6.23;;;3.17;;
142;SDS011;63667;49.046;8.468;2023-11-21T00:53:00;10.90;;;3.07;;
142;SDS011;63667;49.046;8.468;2023-11-21T00:55:27;6.50;;;3.07;;
142;SDS011;63667;49.046;8.468;2023-11-21T00:57:55;5.90;;;2.73;;
142;SDS011;63667;49.046;8.468;2023-11-21T01:00:21;5.07;;;2.77;;
142;SDS011;63667;49.046;8.468;2023-11-21T01:02:48;7.50;;;2.90;;
142;SDS011;63667;49.046;8.468;2023-11-21T01:05:15;10.30;;;3.30;;
142;SDS011;63667;49.046;8.468;2023-11-21T01:07:41;6.63;;;2.67;;
142;SDS011;63667;49.046;8.468;2023-11-21T01:10:08;5.30;;;2.80;;
142;SDS011;63667;49.046;8.468;2023-11-21T01:12:35;7.97;;;2.83;;
142;SDS011;63667;49.046;8.468;2023-11-21T01:15:03;6.30;;;2.73;;
142;SDS011;63667;49.046;8.468;2023-11-21T01:17:32;3.00;;;2.40;;
142;SDS011;63667;49.046;8.468;2023-11-21T01:19:59;7.70;;;3.43;;
142;SDS011;63667;49.046;8.468;2023-11-21T01:22:26;11.37;;;2.97;;
142;SDS011;63667;49.046;8.468;2023-11-21T01:24:53;7.47;;;2.90;;
142;SDS011;63667;49.046;8.468;2023-11-21T01:27:20;9.03;;;3.00;;
142;SDS011;63667;49.046;8.468;2023-11-21T01:29:46;7.53;;;3.10;;
142;SDS011;63667;49.046;8.468;2023-11-21T01:32:12;5.93;;;2.57;;
142;SDS011;63667;49.046;8.468;2023-11-21T01:34:39;7.57;;;3.03;;
142;SDS011;63667;49.046;8.468;2023-11-21T01:37:05;5.43;;;2.47;;
142;SDS011;63667;49.046;8.468;2023-11-21T01:39:32;5.70;;;3.17;;
142;SDS011;63667;49.046;8.468;2023-11-21T01:41:58;5.37;;;3.20;;
142;SDS011;63667;49.046;8.468;2023-11-21T01:44:24;6.47;;;2.93;;
142;SDS011;63667;49.046;8.468;2023-11-21T01:46:51;5.70;;;2.77;;
142;SDS011;63667;49.046;8.468;2023-11-21T01:49:18;6.57;;;2.87;;
142;SDS011;63667;49.046;8.468;2023-11-21T01:51:47;8.97;;;3.03;;
142;SDS011;63667;49.046;8.468;2023-11-21T01:54:17;5.40;;;3.67;;
142;SDS011;63667;49.046;8.468;2023-11-21T01:56:45;8.30;;;2.50;;
142;SDS011;63667;49.046;8.468;2023-11-21T01:59:14;9.20;;;3.23;;
142;SDS011;63667;49.046;8.468;2023-11-21T02:01:44;5.83;;;2.87;;
142;SDS011;63667;49.046;8.468;2023-11-21T02:04:12;5.20;;;3.10;;
142;SDS011;63667;49.046;8.468;2023-11-21T02:06:38;7.20;;;3.53;;
142;SDS011;63667;49.046;8.468;2023-11-21T02:09:05;7.07;;;2.90;;
142;SDS011;63667;49.046;8.468;2023-11-21T02:11:31;11.10;;;3.77;;
142;SDS011;63667;49.046;8.468;2023-11-21T02:14:00;7.30;;;3.23;;
142;SDS011;63667;49.046;8.468;2023-11-21T02:16:27;7.27;;;3.63;;
142;SDS011;63667;49.046;8.468;2023-11-21T02:18:56;10.03;;;3.83;;
142;SDS011;63667;49.046;8.468;2023-11-21T02:21:24;6.80;;;3.30;;
142;SDS011;63667;49.046;8.468;2023-11-21T02:23:51;9.33;;;2.87;;
142;SDS011;63667;49.046;8.468;2023-11-21T02:26:17;13.17;;;3.30;;
142;SDS011;63667;49.046;8.468;2023-11-21T02:28:43;10.70;;;3.20;;
142;SDS011;63667;49.046;8.468;2023-11-21T02:31:10;13.00;;;3.77;;
142;SDS011;63667;49.046;8.468;2023-11-21T02:33:37;9.53;;;3.27;;
142;SDS011;63667;49.046;8.468;2023-11-21T02:36:04;9.40;;;3.17;;
142;SDS011;63667;49.046;8.468;2023-11-21T02:38:31;10.97;;;3.27;;
142;SDS011;63667;49.046;8.468;2023-11-21T02:40:57;7.03;;;2.60;;
142;SDS011;63667;49.046;8.468;2023-11-21T02:43:24;6.80;;;3.40;;
142;SDS011;63667;49.046;8.468;2023-11-21T02:45:51;10.43;;;3.20;;
142;SDS011;63667;49.046;8.468;2023-11-21T02:48:17;9.67;;;3.63;;
142;SDS011;63667;49.046;8.468;2023-11-21T02:50:43;7.47;;;3.20;;
142;SDS011;63667;49.046;8.468;2023-11-21T02:53:10;10.73;;;3.10;;
142;SDS011;63667;49.046;8.468;2023-11-21T02:55:36;10.77;;;2.87;;
142;SDS011;63667;49.046;8.468;2023-11-21T02:58:03;9.70;;;3.03;;
142;SDS011;63667;49.046;8.468;2023-11-21T03:00:29;5.63;;;3.00;;
142;SDS011;63667;49.046;8.468;2023-11-21T03:02:56;6.30;;;2.70;;
142;SDS011;63667;49.046;8.468;2023-11-21T03:05:22;7.30;;;2.87;;
142;SDS011;63667;49.046;8.468;2023-11-21T03:07:49;12.03;;;3.37;;
142;SDS011;63667;49.046;8.468;2023-11-21T03:10:15;6.80;;;2.90;;
142;SDS011;63667;49.046;8.468;2023-11-21T03:12:42;6.00;;;2.70;;
142;SDS011;63667;49.046;8.468;2023-11-21T03:15:09;15.97;;;3.43;;
142;SDS011;63667;49.046;8.468;2023-11-21T03:17:36;8.63;;;2.80;;
142;SDS011;63667;49.046;8.468;2023-11-21T03:20:02;5.33;;;2.97;;
142;SDS011;63667;49.046;8.468;2023-11-21T03:22:29;5.80;;;3.10;;
142;SDS011;63667;49.046;8.468;2023-11-21T03:24:55;7.83;;;2.90;;
142;SDS011;63667;49.046;8.468;2023-11-21T03:27:22;4.60;;;2.80;;
142;SDS011;63667;49.046;8.468;2023-11-21T03:29:48;11.50;;;3.10;;
142;SDS011;63667;49.046;8.468;2023-11-21T03:32:15;8.47;;;3.60;;
142;SDS011;63667;49.046;8.468;2023-11-21T03:34:54;7.00;;;3.50;;
142;SDS011;63667;49.046;8.468;2023-11-21T03:37:21;9.03;;;3.83;;
142;SDS011;63667;49.046;8.468;2023-11-21T03:39:48;12.10;;;3.37;;
142;SDS011;63667;49.046;8.468;2023-11-21T03:42:14;10.47;;;3.33;;
142;SDS011;63667;49.046;8.468;2023-11-21T03:44:41;9.87;;;3.53;;
142;SDS011;63667;49.046;8.468;2023-11-21T03:47:07;8.33;;;3.20;;
142;SDS011;63667;49.046;8.468;2023-11-21T03:49:34;6.63;;;3.10;;
142;SDS011;63667;49.046;8.468;2023-11-21T03:52:00;9.37;;;3.43;;
142;SDS011;63667;49.046;8.468;2023-11-21T03:54:30;7.37;;;3.00;;
142;SDS011;63667;49.046;8.468;2023-11-21T03:56:57;7.40;;;3.00;;
142;SDS011;63667;49.046;8.468;2023-11-21T03:59:23;5.03;;;3.20;;
142;SDS011;63667;49.046;8.468;2023-11-21T04:01:50;6.87;;;3.30;;
142;SDS011;63667;49.046;8.468;2023-11-21T04:04:16;9.27;;;3.50;;
142;SDS011;63667;49.046;8.468;2023-11-21T04:06:43;4.27;;;3.10;;
142;SDS011;63667;49.046;8.468;2023-11-21T04:09:09;5.03;;;2.93;;
142;SDS011;63667;49.046;8.468;2023-11-21T04:11:35;16.47;;;3.70;;
142;SDS011;63667;49.046;8.468;2023-11-21T04:14:02;9.57;;;3.80;;
142;SDS011;63667;49.046;8.468;2023-11-21T04:16:28;5.70;;;3.00;;
142;SDS011;63667;49.046;8.468;2023-11-21T04:18:55;8.40;;;3.13;;
142;SDS011;63667;49.046;8.468;2023-11-21T04:21:22;7.33;;;3.10;;
142;SDS011;63667;49.046;8.468;2023-11-21T04:23:49;12.63;;;3.13;;
142;SDS011;63667;49.046;8.468;2023-11-21T04:26:16;5.63;;;3.17;;
142;SDS011;63667;49.046;8.468;2023-11-21T04:28:42;4.70;;;3.50;;
142;SDS011;63667;49.046;8.468;2023-11-21T04:31:08;13.33;;;3.00;;
142;SDS011;63667;49.046;8.468;2023-11-21T04:33:35;16.80;;;3.60;;
142;SDS011;63667;49.046;8.468;2023-11-21T04:36:01;8.77;;;3.00;;
142;SDS011;63667;49.046;8.468;2023-11-21T04:38:28;10.67;;;3.07;;
142;SDS011;63667;49.046;8.468;2023-11-21T04:40:54;7.00;;;3.47;;
142;SDS011;63667;49.046;8.468;2023-11-21T04:43:21;11.27;;;3.90;;
142;SDS011;63667;49.046;8.468;2023-11-21T04:45:47;6.57;;;3.17;;
142;SDS011;63667;49.046;8.468;2023-11-21T04:48:13;7.87;;;3.80;;
142;SDS011;63667;49.046;8.468;2023-11-21T04:50:40;7.23;;;3.57;;
142;SDS011;63667;49.046;8.468;2023-11-21T04:53:06;6.97;;;3.60;;
142;SDS011;63667;49.046;8.468;2023-11-21T04:55:32;13.60;;;3.80;;
142;SDS011;63667;49.046;8.468;2023-11-21T04:57:59;11.30;;;4.17;;
142;SDS011;63667;49.046;8.468;2023-11-21T05:00:25;12.20;;;3.90;;
142;SDS011;63667;49.046;8.468;2023-11-21T05:02:52;7.97;;;3.80;;
142;SDS011;63667;49.046;8.468;2023-11-21T05:05:18;10.80;;;4.33;;
142;SDS011;63667;49.046;8.468;2023-11-21T05:07:44;14.53;;;4.40;;
142;SDS011;63667;49.046;8.468;2023-11-21T05:10:11;9.13;;;4.10;;
142;SDS011;63667;49.046;8.468;2023-11-21T05:12:40;14.90;;;4.47;;
142;SDS011;63667;49.046;8.468;2023-11-21T05:15:07;14.30;;;4.67;;
142;SDS011;63667;49.046;8.468;2023-11-21T05:17:38;7.63;;;4.40;;
142;SDS011;63667;49.046;8.468;2023-11-21T05:20:07;10.87;;;3.80;;
142;SDS011;63667;49.046;8.468;2023-11-21T05:22:35;7.20;;;4.23;;
142;SDS011;63667;49.046;8.468;2023-11-21T05:25:02;9.03;;;4.40;;
142;SDS011;63667;49.046;8.468;2023-11-21T05:27:29;16.20;;;4.80;;
142;SDS011;63667;49.046;8.468;2023-11-21T05:29:59;7.70;;;4.20;;
142;SDS011;63667;49.046;8.468;2023-11-21T05:32:25;14.50;;;5.37;;
142;SDS011;63667;49.046;8.468;2023-11-21T05:34:52;12.17;;;5.10;;
142;SDS011;63667;49.046;8.468;2023-11-21T05:37:18;11.47;;;5.50;;
142;SDS011;63667;49.046;8.468;2023-11-21T05:39:45;14.67;;;4.93;;
142;SDS011;63667;49.046;8.468;2023-11-21T05:42:12;12.03;;;6.07;;
142;SDS011;63667;49.046;8.468;2023-11-21T05:44:40;13.83;;;6.20;;
142;SDS011;63667;49.046;8.468;2023-11-21T05:47:07;9.30;;;5.43;;
142;SDS011;63667;49.046;8.468;2023-11-21T05:49:34;10.93;;;5.33;;
142;SDS011;63667;49.046;8.468;2023-11-21T05:52:00;11.07;;;5.60;;
142;SDS011;63667;49.046;8.468;2023-11-21T05:54:26;10.20;;;5.27;;
142;SDS011;63667;49.046;8.468;2023-11-21T05:56:54;15.90;;;6.17;;
142;SDS011;63667;49.046;8.468;2023-11-21T05:59:20;12.97;;;5.67;;
142;SDS011;63667;49.046;8.468;2023-11-21T06:01:46;17.07;;;6.07;;
142;SDS011;63667;49.046;8.468;2023-11-21T06:04:13;11.70;;;6.23;;
142;SDS011;63667;49.046;8.468;2023-11-21T06:06:40;12.63;;;6.00;;
142;SDS011;63667;49.046;8.468;2023-11-21T06:09:07;10.07;;;5.83;;
142;SDS011;63667;49.046;8.468;2023-11-21T06:11:37;13.10;;;5.47;;
142;SDS011;63667;49.046;8.468;2023-11-21T06:14:03;11.00;;;6.17;;
142;SDS011;63667;49.046;8.468;2023-11-21T06:16:33;10.43;;;5.73;;
142;SDS011;63667;49.046;8.468;2023-11-21T06:18:59;12.80;;;6.10;;
142;SDS011;63667;49.046;8.468;2023-11-21T06:21:26;11.33;;;6.00;;
142;SDS011;63667;49.046;8.468;2023-11-21T06:23:53;13.03;;;7.37;;
142;SDS011;63667;49.046;8.468;2023-11-21T06:26:19;14.73;;;6.47;;
142;SDS011;63667;49.046;8.468;2023-11-21T06:28:46;11.00;;;5.90;;
142;SDS011;63667;49.046;8.468;2023-11-21T06:31:12;10.37;;;5.97;;
142;SDS011;63667;49.046;8.468;2023-11-21T06:33:39;12.53;;;5.80;;
142;SDS011;63667;49.046;8.468;2023-11-21T06:36:06;12.00;;;5.77;;
142;SDS011;63667;49.046;8.468;2023-11-21T06:38:33;9.30;;;6.13;;
142;SDS011;63667;49.046;8.468;2023-11-21T06:41:00;10.87;;;6.20;;
142;SDS011;63667;49.046;8.468;2023-11-21T06:43:29;18.03;;;6.13;;
142;SDS011;63667;49.046;8.468;2023-11-21T06:45:59;17.23;;;6.77;;
142;SDS011;63667;49.046;8.468;2023-11-21T06:48:25;19.97;;;7.00;;
142;SDS011;63667;49.046;8.468;2023-11-21T06:50:52;20.30;;;6.90;;
142;SDS011;63667;49.046;8.468;2023-11-21T06:53:18;12.13;;;6.40;;
142;SDS011;63667;49.046;8.468;2023-11-21T06:55:44;11.47;;;7.23;;
142;SDS011;63667;49.046;8.468;2023-11-21T06:58:11;11.63;;;6.67;;
142;SDS011;63667;49.046;8.468;2023-11-21T07:00:37;13.17;;;6.70;;
142;SDS011;63667;49.046;8.468;2023-11-21T07:03:04;10.60;;;6.47;;
142;SDS011;63667;49.046;8.468;2023-11-21T07:05:30;15.07;;;6.80;;
142;SDS011;63667;49.046;8.468;2023-11-21T07:07:57;13.93;;;6.70;;
142;SDS011;63667;49.046;8.468;2023-11-21T07:10:29;14.83;;;7.30;;
142;SDS011;63667;49.046;8.468;2023-11-21T07:12:56;13.47;;;6.77;;
142;SDS011;63667;49.046;8.468;2023-11-21T07:15:23;16.07;;;7.40;;
142;SDS011;63667;49.046;8.468;2023-11-21T07:17:51;10.87;;;7.03;;
142;SDS011;63667;49.046;8.468;2023-11-21T07:20:19;15.03;;;7.80;;
142;SDS011;63667;49.046;8.468;2023-11-21T07:22:46;16.43;;;7.97;;
142;SDS011;63667;49.046;8.468;2023-11-21T07:25:13;17.47;;;8.03;;
142;SDS011;63667;49.046;8.468;2023-11-21T07:27:39;16.17;;;7.83;;
142;SDS011;63667;49.046;8.468;2023-11-21T07:30:06;16.20;;;8.50;;
142;SDS011;63667;49.046;8.468;2023-11-21T07:32:35;21.23;;;9.40;;
142;SDS011;63667;49.046;8.468;2023-11-21T07:35:01;17.97;;;8.90;;
142;SDS011;63667;49.046;8.468;2023-11-21T07:37:27;19.63;;;9.10;;
142;SDS011;63667;49.046;8.468;2023-11-21T07:39:54;20.70;;;9.63;;
142;SDS011;63667;49.046;8.468;2023-11-21T07:42:25;18.27;;;9.07;;
142;SDS011;63667;49.046;8.468;2023-11-21T07:44:52;19.50;;;9.70;;
142;SDS011;63667;49.046;8.468;2023-11-21T07:47:19;21.27;;;9.40;;
142;SDS011;63667;49.046;8.468;2023-11-21T07:49:45;25.07;;;10.00;;
142;SDS011;63667;49.046;8.468;2023-11-21T07:52:13;23.67;;;9.70;;
142;SDS011;63667;49.046;8.468;2023-11-21T07:54:41;23.10;;;10.43;;
142;SDS011;63667;49.046;8.468;2023-11-21T07:57:08;17.93;;;9.37;;
142;SDS011;63667;49.046;8.468;2023-11-21T07:59:37;14.63;;;7.50;;
142;SDS011;63667;49.046;8.468;2023-11-21T08:02:03;12.40;;;6.57;;
142;SDS011;63667;49.046;8.468;2023-11-21T08:04:29;12.40;;;6.40;;
142;SDS011;63667;49.046;8.468;2023-11-21T08:06:57;14.20;;;7.53;;
142;SDS011;63667;49.046;8.468;2023-11-21T08:09:23;15.20;;;8.10;;
142;SDS011;63667;49.046;8.468;2023-11-21T08:11:51;14.73;;;7.87;;
142;SDS011;63667;49.046;8.468;2023-11-21T08:14:18;17.93;;;7.93;;
142;SDS011;63667;49.046;8.468;2023-11-21T08:16:45;18.63;;;7.80;;
142;SDS011;63667;49.046;8.468;2023-11-21T08:19:12;14.50;;;7.37;;
142;SDS011;63667;49.046;8.468;2023-11-21T08:21:38;15.40;;;7.90;;
142;SDS011;63667;49.046;8.468;2023-11-21T08:24:06;14.13;;;8.07;;
142;SDS011;63667;49.046;8.468;2023-11-21T08:26:36;17.70;;;8.03;;
142;SDS011;63667;49.046;8.468;2023-11-21T08:29:03;16.47;;;8.30;;
142;SDS011;63667;49.046;8.468;2023-11-21T08:31:32;17.30;;;8.53;;
142;SDS011;63667;49.046;8.468;2023-11-21T08:33:59;16.30;;;8.10;;
142;SDS011;63667;49.046;8.468;2023-11-21T08:36:28;20.17;;;7.23;;
142;SDS011;63667;49.046;8.468;2023-11-21T08:38:56;15.57;;;8.30;;
142;SDS011;63667;49.046;8.468;2023-11-21T08:41:23;16.83;;;7.80;;
142;SDS011;63667;49.046;8.468;2023-11-21T08:43:50;23.30;;;11.20;;
142;SDS011;63667;49.046;8.468;2023-11-21T08:46:16;34.27;;;14.40;;
142;SDS011;63667;49.046;8.468;2023-11-21T08:48:43;28.37;;;14.07;;
142;SDS011;63667;49.046;8.468;2023-11-21T08:51:10;27.00;;;12.03;;
142;SDS011;63667;49.046;8.468;2023-11-21T08:53:39;25.40;;;13.47;;
142;SDS011;63667;49.046;8.468;2023-11-21T08:56:06;27.43;;;11.97;;
142;SDS011;63667;49.046;8.468;2023-11-21T08:58:34;20.00;;;9.83;;
142;SDS011;63667;49.046;8.468;2023-11-21T09:01:02;22.10;;;11.77;;
142;SDS011;63667;49.046;8.468;2023-11-21T09:03:29;24.60;;;12.60;;
142;SDS011;63667;49.046;8.468;2023-11-21T09:05:55;27.23;;;12.73;;
142;SDS011;63667;49.046;8.468;2023-11-21T09:08:21;26.50;;;12.80;;
142;SDS011;63667;49.046;8.468;2023-11-21T09:10:48;30.13;;;14.00;;
142;SDS011;63667;49.046;8.468;2023-11-21T09:13:14;31.50;;;15.30;;
142;SDS011;63667;49.046;8.468;2023-11-21T09:15:42;32.40;;;14.93;;
142;SDS011;63667;49.046;8.468;2023-11-21T09:18:14;32.43;;;12.97;;
142;SDS011;63667;49.046;8.468;2023-11-21T09:20:42;35.43;;;12.97;;
142;SDS011;63667;49.046;8.468;2023-11-21T09:23:09;30.73;;;13.27;;
142;SDS011;63667;49.046;8.468;2023-11-21T09:25:36;31.17;;;12.83;;
142;SDS011;63667;49.046;8.468;2023-11-21T09:28:05;29.50;;;13.50;;
142;SDS011;63667;49.046;8.468;2023-11-21T09:30:34;30.27;;;14.33;;
142;SDS011;63667;49.046;8.468;2023-11-21T09:33:04;32.50;;;15.07;;
142;SDS011;63667;49.046;8.468;2023-11-21T09:35:38;29.53;;;14.27;;
142;SDS011;63667;49.046;8.468;2023-11-21T09:38:05;28.37;;;14.17;;
142;SDS011;63667;49.046;8.468;2023-11-21T09:40:36;28.17;;;13.53;;
142;SDS011;63667;49.046;8.468;2023-11-21T09:43:06;30.60;;;13.33;;
142;SDS011;63667;49.046;8.468;2023-11-21T09:45:35;32.03;;;14.07;;
142;SDS011;63667;49.046;8.468;2023-11-21T09:48:01;29.33;;;13.50;;
142;SDS011;63667;49.046;8.468;2023-11-21T09:50:28;25.30;;;12.27;;
142;SDS011;63667;49.046;8.468;2023-11-21T09:53:17;27.13;;;12.67;;
142;SDS011;63667;49.046;8.468;2023-11-21T09:55:52;31.30;;;14.60;;
142;SDS011;63667;49.046;8.468;2023-11-21T09:58:19;33.23;;;15.23;;
142;SDS011;63667;49.046;8.468;2023-11-21T10:00:48;26.27;;;12.67;;
142;SDS011;63667;49.046;8.468;2023-11-21T10:03:15;27.07;;;12.50;;
142;SDS011;63667;49.046;8.468;2023-11-21T10:05:42;28.73;;;13.70;;
142;SDS011;63667;49.046;8.468;2023-11-21T10:08:10;25.90;;;12.40;;
142;SDS011;63667;49.046;8.468;2023-11-21T10:10:37;27.00;;;12.33;;
142;SDS011;63667;49.046;8.468;2023-11-21T10:13:06;27.03;;;12.87;;
142;SDS011;63667;49.046;8.468;2023-11-21T10:15:35;23.63;;;11.87;;
142;SDS011;63667;49.046;8.468;2023-11-21T10:18:03;30.97;;;14.20;;
142;SDS011;63667;49.046;8.468;2023-11-21T10:20:31;24.87;;;13.33;;
142;SDS011;63667;49.046;8.468;2023-11-21T10:22:59;26.83;;;14.90;;
142;SDS011;63667;49.046;8.468;2023-11-21T10:25:29;26.30;;;13.63;;
142;SDS011;63667;49.046;8.468;2023-11-21T10:27:59;24.43;;;10.17;;
142;SDS011;63667;49.046;8.468;2023-11-21T10:30:33;21.70;;;11.20;;
142;SDS011;63667;49.046;8.468;2023-11-21T10:33:02;25.53;;;12.80;;
142;SDS011;63667;49.046;8.468;2023-11-21T10:35:38;21.20;;;12.50;;
142;SDS011;63667;49.046;8.468;2023-11-21T10:38:05;16.03;;;9.67;;
142;SDS011;63667;49.046;8.468;2023-11-21T10:40:38;18.83;;;9.70;;
142;SDS011;63667;49.046;8.468;2023-11-21T10:43:11;18.40;;;9.27;;
142;SDS011;63667;49.046;8.468;2023-11-21T10:45:38;18.60;;;8.90;;
142;SDS011;63667;49.046;8.468;2023-11-21T10:48:09;16.83;;;8.43;;
142;SDS011;63667;49.046;8.468;2023-11-21T10:50:42;17.47;;;8.73;;
142;SDS011;63667;49.046;8.468;2023-11-21T10:53:10;22.23;;;10.43;;
142;SDS011;63667;49.046;8.468;2023-11-21T10:55:37;21.93;;;11.87;;
142;SDS011;63667;49.046;8.468;2023-11-21T10:58:04;14.67;;;9.00;;
142;SDS011;63667;49.046;8.468;2023-11-21T11:00:32;16.63;;;8.73;;
142;SDS011;63667;49.046;8.468;2023-11-21T11:02:59;17.40;;;8.00;;
142;SDS011;63667;49.046;8.468;2023-11-21T11:05:27;13.47;;;8.37;;
142;SDS011;63667;49.046;8.468;2023-11-21T11:08:08;16.60;;;9.80;;
142;SDS011;63667;49.046;8.468;2023-11-21T11:10:35;12.63;;;7.83;;
142;SDS011;63667;49.046;8.468;2023-11-21T11:13:02;14.00;;;7.17;;
142;SDS011;63667;49.046;8.468;2023-11-21T11:15:30;13.53;;;7.83;;
142;SDS011;63667;49.046;8.468;2023-11-21T11:17:57;12.67;;;6.87;;
142;SDS011;63667;49.046;8.468;2023-11-21T11:20:29;12.30;;;7.43;;
142;SDS011;63667;49.046;8.468;2023-11-21T11:26:16;16.53;;;8.80;;
142;SDS011;63667;49.046;8.468;2023-11-21T11:28:15;17.47;;;9.23;;
142;SDS011;63667;49.046;8.468;2023-11-21T11:31:04;14.57;;;7.30;;
142;SDS011;63667;49.046;8.468;2023-11-21T11:33:46;15.77;;;9.90;;
142;SDS011;63667;49.046;8.468;2023-11-21T11:39:00;11.83;;;7.13;;
142;SDS011;63667;49.046;8.468;2023-11-21T11:41:28;11.40;;;7.70;;
142;SDS011;63667;49.046;8.468;2023-11-21T11:43:56;11.03;;;7.00;;
142;SDS011;63667;49.046;8.468;2023-11-21T11:46:39;9.67;;;6.50;;
142;SDS011;63667;49.046;8.468;2023-11-21T11:49:07;15.27;;;9.60;;
142;SDS011;63667;49.046;8.468;2023-11-21T11:51:33;17.57;;;10.20;;
142;SDS011;63667;49.046;8.468;2023-11-21T11:54:01;13.33;;;7.80;;
142;SDS011;63667;49.046;8.468;2023-11-21T11:56:28;11.03;;;7.30;;
142;SDS011;63667;49.046;8.468;2023-11-21T11:58:57;11.10;;;7.20;;
142;SDS011;63667;49.046;8.468;2023-11-21T12:01:24;9.83;;;6.77;;
142;SDS011;63667;49.046;8.468;2023-11-21T12:06:42;9.57;;;6.70;;
142;SDS011;63667;49.046;8.468;2023-11-21T12:09:17;14.87;;;8.17;;
142;SDS011;63667;49.046;8.468;2023-11-21T12:11:44;15.30;;;8.10;;
142;SDS011;63667;49.046;8.468;2023-11-21T12:14:12;13.77;;;7.87;;
142;SDS011;63667;49.046;8.468;2023-11-21T12:16:39;18.47;;;8.50;;
142;SDS011;63667;49.046;8.468;2023-11-21T12:19:06;13.77;;;8.40;;
142;SDS011;63667;49.046;8.468;2023-11-21T12:21:32;17.10;;;8.83;;
142;SDS011;63667;49.046;8.468;2023-11-21T12:23:59;17.47;;;8.77;;
142;SDS011;63667;49.046;8.468;2023-11-21T12:26:26;14.33;;;8.10;;
142;SDS011;63667;49.046;8.468;2023-11-21T12:28:53;16.80;;;8.80;;
142;SDS011;63667;49.046;8.468;2023-11-21T12:31:24;17.80;;;10.20;;
142;SDS011;63667;49.046;8.468;2023-11-21T12:33:50;20.27;;;9.43;;
142;SDS011;63667;49.046;8.468;2023-11-21T12:36:17;14.57;;;8.60;;
142;SDS011;63667;49.046;8.468;2023-11-21T12:38:44;17.43;;;9.60;;
142;SDS011;63667;49.046;8.468;2023-11-21T12:41:10;20.87;;;10.10;;
142;SDS011;63667;49.046;8.468;2023-11-21T12:43:37;20.77;;;10.57;;
142;SDS011;63667;49.046;8.468;2023-11-21T12:46:08;17.90;;;8.77;;
142;SDS011;63667;49.046;8.468;2023-11-21T12:48:38;13.80;;;8.50;;
142;SDS011;63667;49.046;8.468;2023-11-21T12:51:11;15.33;;;8.80;;
142;SDS011;63667;49.046;8.468;2023-11-21T12:53:41;15.43;;;8.90;;
142;SDS011;63667;49.046;8.468;2023-11-21T12:56:11;14.77;;;8.27;;
142;SDS011;63667;49.046;8.468;2023-11-21T12:58:38;15.60;;;8.47;;
142;SDS011;63667;49.046;8.468;2023-11-21T13:01:05;13.50;;;8.17;;
142;SDS011;63667;49.046;8.468;2023-11-21T13:03:40;12.70;;;7.93;;
142;SDS011;63667;49.046;8.468;2023-11-21T13:06:10;12.87;;;7.97;;
142;SDS011;63667;49.046;8.468;2023-11-21T13:08:37;12.93;;;7.80;;
142;SDS011;63667;49.046;8.468;2023-11-21T13:11:04;12.27;;;7.50;;
142;SDS011;63667;49.046;8.468;2023-11-21T13:13:31;16.27;;;7.70;;
142;SDS011;63667;49.046;8.468;2023-11-21T13:16:01;13.97;;;7.77;;
142;SDS011;63667;49.046;8.468;2023-11-21T13:18:31;12.70;;;7.60;;
142;SDS011;63667;49.046;8.468;2023-11-21T13:20:58;15.17;;;7.73;;
142;SDS011;63667;49.046;8.468;2023-11-21T13:23:25;11.27;;;7.03;;
142;SDS011;63667;49.046;8.468;2023-11-21T13:25:54;9.77;;;6.97;;
142;SDS011;63667;49.046;8.468;2023-11-21T13:28:21;12.23;;;7.20;;
142;SDS011;63667;49.046;8.468;2023-11-21T13:30:49;10.17;;;6.50;;
142;SDS011;63667;49.046;8.468;2023-11-21T13:33:18;10.00;;;6.40;;
142;SDS011;63667;49.046;8.468;2023-11-21T13:35:47;8.03;;;5.97;;
142;SDS011;63667;49.046;8.468;2023-11-21T13:38:17;9.00;;;6.13;;
142;SDS011;63667;49.046;8.468;2023-11-21T13:40:47;11.13;;;5.90;;
142;SDS011;63667;49.046;8.468;2023-11-21T13:43:17;10.17;;;6.30;;
142;SDS011;63667;49.046;8.468;2023-11-21T13:45:46;7.53;;;5.40;;
142;SDS011;63667;49.046;8.468;2023-11-21T13:48:13;9.43;;;5.43;;
142;SDS011;63667;49.046;8.468;2023-11-21T13:50:40;10.40;;;5.50;;
142;SDS011;63667;49.046;8.468;2023-11-21T13:53:14;8.90;;;6.20;;
142;SDS011;63667;49.046;8.468;2023-11-21T13:55:48;7.80;;;5.60;;
142;SDS011;63667;49.046;8.468;2023-11-21T13:58:16;8.30;;;5.70;;
142;SDS011;63667;49.046;8.468;2023-11-21T14:00:50;8.20;;;6.13;;
142;SDS011;63667;49.046;8.468;2023-11-21T14:03:22;9.63;;;5.93;;
142;SDS011;63667;49.046;8.468;2023-11-21T14:05:57;10.40;;;5.90;;
142;SDS011;63667;49.046;8.468;2023-11-21T14:08:26;10.53;;;5.60;;
142;SDS011;63667;49.046;8.468;2023-11-21T14:10:56;10.23;;;5.80;;
142;SDS011;63667;49.046;8.468;2023-11-21T14:13:28;12.23;;;6.90;;
142;SDS011;63667;49.046;8.468;2023-11-21T14:15:54;11.50;;;6.80;;
142;SDS011;63667;49.046;8.468;2023-11-21T14:18:25;15.43;;;6.07;;
142;SDS011;63667;49.046;8.468;2023-11-21T14:21:15;13.40;;;6.50;;
142;SDS011;63667;49.046;8.468;2023-11-21T14:23:42;10.70;;;7.03;;
142;SDS011;63667;49.046;8.468;2023-11-21T14:26:08;15.57;;;7.23;;
142;SDS011;63667;49.046;8.468;2023-11-21T14:28:39;10.70;;;6.77;;
142;SDS011;63667;49.046;8.468;2023-11-21T14:31:05;9.70;;;5.90;;
142;SDS011;63667;49.046;8.468;2023-11-21T14:33:31;9.50;;;6.20;;
142;SDS011;63667;49.046;8.468;2023-11-21T14:35:58;13.30;;;6.53;;
142;SDS011;63667;49.046;8.468;2023-11-21T14:38:25;10.93;;;6.50;;
142;SDS011;63667;49.046;8.468;2023-11-21T14:40:51;9.90;;;5.97;;
142;SDS011;63667;49.046;8.468;2023-11-21T14:43:18;17.00;;;5.90;;
142;SDS011;63667;49.046;8.468;2023-11-21T14:45:46;7.70;;;5.93;;
142;SDS011;63667;49.046;8.468;2023-11-21T14:48:14;16.37;;;6.70;;
142;SDS011;63667;49.046;8.468;2023-11-21T14:50:42;14.07;;;6.60;;
142;SDS011;63667;49.046;8.468;2023-11-21T14:53:44;8.20;;;5.70;;
142;SDS011;63667;49.046;8.468;2023-11-21T14:56:20;8.67;;;5.70;;
142;SDS011;63667;49.046;8.468;2023-11-21T14:58:56;12.63;;;5.90;;
142;SDS011;63667;49.046;8.468;2023-11-21T15:01:25;9.97;;;5.77;;
142;SDS011;63667;49.046;8.468;2023-11-21T15:04:19;10.93;;;5.57;;
142;SDS011;63667;49.046;8.468;2023-11-21T15:07:04;7.33;;;5.70;;
142;SDS011;63667;49.046;8.468;2023-11-21T15:09:31;11.37;;;5.27;;
142;SDS011;63667;49.046;8.468;2023-11-21T15:11:58;13.70;;;5.70;;
142;SDS011;63667;49.046;8.468;2023-11-21T15:14:49;7.43;;;5.20;;
142;SDS011;63667;49.046;8.468;2023-11-21T15:17:19;8.27;;;4.90;;
142;SDS011;63667;49.046;8.468;2023-11-21T15:19:52;8.60;;;4.70;;